Time;durP1;ratioP1;P1;durP2;ratioP2;P2;SDS_P1;SDS_P2;PMS_P1;PMS_P2;Temp;Humidity;BMP_temperature;BMP_pressure;BME280_temperature;BME280_humidity;BME280_pressure;Samples;Min_cycle;Max_cycle;Signal;HPM_P1;HPM_P2
2021/08/31 00:00:00;;;;;;;8.15;5.97;;;;;;;;;;5060561;28;20047;-84
2021/08/31 00:02:26;;;;;;;8.93;5.82;;;;;;;;;;5060742;28;20399;-84
2021/08/31 00:04:53;;;;;;;6.80;5.60;;;;;;;;;;5060122;28;20040;-83
2021/08/31 00:07:19;;;;;;;9.88;5.97;;;;;;;;;;5060550;28;20115;-84
2021/08/31 00:09:47;;;;;;;12.23;6.07;;;;;;;;;;5078036;28;20021;-84
2021/08/31 00:12:13;;;;;;;9.77;6.07;;;;;;;;;;5078375;28;20035;-83
2021/08/31 00:14:40;;;;;;;13.48;6.65;;;;;;;;;;5078004;28;20044;-84
2021/08/31 00:17:07;;;;;;;12.43;6.43;;;;;;;;;;5060083;28;20028;-84
2021/08/31 00:19:33;;;;;;;12.40;6.97;;;;;;;;;;5078042;28;20043;-83
2021/08/31 00:21:59;;;;;;;12.43;6.88;;;;;;;;;;5059573;28;20393;-83
2021/08/31 00:24:25;;;;;;;11.00;6.53;;;;;;;;;;5077529;28;20045;-83
2021/08/31 00:26:51;;;;;;;9.68;6.85;;;;;;;;;;5059683;28;20123;-83
2021/08/31 00:29:17;;;;;;;12.27;7.22;;;;;;;;;;5077927;28;20028;-84
2021/08/31 00:31:43;;;;;;;10.07;6.75;;;;;;;;;;5077686;28;20021;-84
2021/08/31 00:34:09;;;;;;;9.48;7.32;;;;;;;;;;5059664;28;20033;-85
2021/08/31 00:36:35;;;;;;;12.95;6.90;;;;;;;;;;5077640;28;20060;-84
2021/08/31 00:39:01;;;;;;;12.15;7.03;;;;;;;;;;5059937;28;20024;-85
2021/08/31 00:41:27;;;;;;;10.20;6.47;;;;;;;;;;5077533;28;20115;-84
2021/08/31 00:43:54;;;;;;;12.93;7.07;;;;;;;;;;5059810;28;20410;-84
2021/08/31 00:46:22;;;;;;;11.55;7.50;;;;;;;;;;5077465;28;20111;-84
2021/08/31 00:48:49;;;;;;;14.38;7.40;;;;;;;;;;5077388;28;20032;-84
2021/08/31 00:51:16;;;;;;;10.20;7.20;;;;;;;;;;5077566;28;20024;-84
2021/08/31 00:53:42;;;;;;;13.75;7.32;;;;;;;;;;5059682;28;20028;-84
2021/08/31 00:56:12;;;;;;;15.30;8.15;;;;;;;;;;5077669;28;20321;-84
2021/08/31 00:58:42;;;;;;;15.48;8.00;;;;;;;;;;5058341;28;20032;-83
2021/08/31 01:01:08;;;;;;;20.60;7.60;;;;;;;;;;5077482;28;20020;-84
2021/08/31 01:03:34;;;;;;;12.70;7.88;;;;;;;;;;5077363;28;20033;-84
2021/08/31 01:06:01;;;;;;;12.85;7.45;;;;;;;;;;5077175;28;20035;-84
2021/08/31 01:08:28;;;;;;;14.73;8.40;;;;;;;;;;5077242;28;20035;-84
2021/08/31 01:10:54;;;;;;;13.63;7.93;;;;;;;;;;5058842;28;20395;-84
2021/08/31 01:13:21;;;;;;;16.73;8.38;;;;;;;;;;5059411;28;20115;-83
2021/08/31 01:15:48;;;;;;;15.70;8.57;;;;;;;;;;5077223;28;20025;-83
2021/08/31 01:18:21;;;;;;;12.95;7.95;;;;;;;;;;5077013;28;20029;-84
2021/08/31 01:20:48;;;;;;;17.20;8.98;;;;;;;;;;5059094;28;20033;-83
2021/08/31 01:23:15;;;;;;;17.02;8.20;;;;;;;;;;5059187;28;20338;-84
2021/08/31 01:25:42;;;;;;;12.98;8.73;;;;;;;;;;5077465;28;20040;-84
2021/08/31 01:28:08;;;;;;;12.90;8.43;;;;;;;;;;5076978;28;20098;-84
2021/08/31 01:30:34;;;;;;;12.50;8.82;;;;;;;;;;5077243;28;20071;-84
2021/08/31 01:33:01;;;;;;;13.07;8.20;;;;;;;;;;5076951;28;20036;-84
2021/08/31 01:35:27;;;;;;;11.20;7.78;;;;;;;;;;5077131;28;20021;-84
2021/08/31 01:37:53;;;;;;;12.68;8.15;;;;;;;;;;5077103;28;20048;-84
2021/08/31 01:40:19;;;;;;;10.98;7.78;;;;;;;;;;5077043;28;20025;-84
2021/08/31 01:42:45;;;;;;;12.38;7.95;;;;;;;;;;5058836;28;20039;-84
2021/08/31 01:45:11;;;;;;;10.50;8.38;;;;;;;;;;5076988;28;20017;-84
2021/08/31 01:47:38;;;;;;;13.68;8.82;;;;;;;;;;5058789;28;20037;-84
2021/08/31 01:50:05;;;;;;;11.13;8.20;;;;;;;;;;5059142;28;20032;-84
2021/08/31 01:52:31;;;;;;;12.65;9.00;;;;;;;;;;5059120;28;20031;-84
2021/08/31 01:54:57;;;;;;;11.20;8.23;;;;;;;;;;5058837;28;20135;-85
2021/08/31 01:57:23;;;;;;;10.77;8.25;;;;;;;;;;5076779;28;20048;-84
2021/08/31 01:59:49;;;;;;;11.02;8.15;;;;;;;;;;5059093;28;20025;-84
2021/08/31 02:02:15;;;;;;;12.27;8.60;;;;;;;;;;5076910;28;20017;-84
2021/08/31 02:04:41;;;;;;;12.60;8.52;;;;;;;;;;5076827;28;20027;-84
2021/08/31 02:07:07;;;;;;;11.77;8.02;;;;;;;;;;5059044;28;20066;-85
2021/08/31 02:09:33;;;;;;;11.88;8.13;;;;;;;;;;5079082;28;20024;-84
2021/08/31 02:11:59;;;;;;;12.45;8.02;;;;;;;;;;5080282;28;20051;-84
2021/08/31 02:14:25;;;;;;;11.80;7.95;;;;;;;;;;5080242;28;20031;-84
2021/08/31 02:16:51;;;;;;;10.38;7.43;;;;;;;;;;5080155;28;20428;-84
2021/08/31 02:19:17;;;;;;;17.73;8.32;;;;;;;;;;5080173;28;20044;-84
2021/08/31 02:21:43;;;;;;;10.07;7.75;;;;;;;;;;5062105;28;20040;-84
2021/08/31 02:24:10;;;;;;;9.73;7.60;;;;;;;;;;5060414;28;20045;-84
2021/08/31 02:26:37;;;;;;;11.13;8.07;;;;;;;;;;5079888;28;20386;-83
2021/08/31 02:29:03;;;;;;;12.77;7.53;;;;;;;;;;5080062;28;20051;-83
2021/08/31 02:31:29;;;;;;;10.57;7.45;;;;;;;;;;5062074;28;20029;-83
2021/08/31 02:33:55;;;;;;;13.63;8.10;;;;;;;;;;5062078;28;20111;-83
2021/08/31 02:36:21;;;;;;;15.63;8.10;;;;;;;;;;5079698;28;20031;-83
2021/08/31 02:38:47;;;;;;;12.23;7.88;;;;;;;;;;5079891;28;20052;-84
2021/08/31 02:41:13;;;;;;;11.60;7.72;;;;;;;;;;5079874;28;20021;-83
2021/08/31 02:43:39;;;;;;;14.18;7.95;;;;;;;;;;5079753;28;20028;-83
2021/08/31 02:46:05;;;;;;;11.32;7.68;;;;;;;;;;5062048;28;20115;-84
2021/08/31 02:48:32;;;;;;;10.27;7.10;;;;;;;;;;5079572;28;20032;-84
2021/08/31 02:50:58;;;;;;;10.00;6.47;;;;;;;;;;5079605;28;20030;-84
2021/08/31 02:53:24;;;;;;;8.88;6.32;;;;;;;;;;5079774;28;20033;-83
2021/08/31 02:55:50;;;;;;;10.77;7.38;;;;;;;;;;5061874;28;20119;-83
2021/08/31 02:58:16;;;;;;;9.65;6.95;;;;;;;;;;5079352;28;20025;-83
2021/08/31 03:00:43;;;;;;;16.67;8.73;;;;;;;;;;5079265;28;20025;-83
2021/08/31 03:03:10;;;;;;;14.52;9.63;;;;;;;;;;5079392;28;20025;-83
2021/08/31 03:05:36;;;;;;;11.77;9.18;;;;;;;;;;5079333;28;20048;-83
2021/08/31 03:08:03;;;;;;;14.73;9.40;;;;;;;;;;5079396;28;20073;-83
2021/08/31 03:10:29;;;;;;;15.10;10.98;;;;;;;;;;5079531;28;20025;-84
2021/08/31 03:12:55;;;;;;;14.30;10.10;;;;;;;;;;5078955;28;20024;-83
2021/08/31 03:15:21;;;;;;;14.43;9.32;;;;;;;;;;5061470;28;20163;-84
2021/08/31 03:17:47;;;;;;;12.23;9.30;;;;;;;;;;5079212;28;20024;-83
2021/08/31 03:20:13;;;;;;;12.25;9.18;;;;;;;;;;5077892;28;20414;-84
2021/08/31 03:22:39;;;;;;;14.32;9.82;;;;;;;;;;5078994;28;20421;-83
2021/08/31 03:25:05;;;;;;;15.00;9.27;;;;;;;;;;5061137;28;20029;-84
2021/08/31 03:27:31;;;;;;;14.48;9.52;;;;;;;;;;5079064;28;20043;-84
2021/08/31 03:29:57;;;;;;;12.77;9.63;;;;;;;;;;5078996;28;20111;-84
2021/08/31 03:32:23;;;;;;;13.32;8.90;;;;;;;;;;5078519;28;20028;-84
2021/08/31 03:34:49;;;;;;;9.35;8.02;;;;;;;;;;5061117;28;20318;-84
2021/08/31 03:37:15;;;;;;;8.48;7.28;;;;;;;;;;5060378;28;20434;-84
2021/08/31 03:39:42;;;;;;;9.40;7.25;;;;;;;;;;5078765;28;20061;-82
2021/08/31 03:42:08;;;;;;;10.45;7.38;;;;;;;;;;5078682;28;20047;-82
2021/08/31 03:44:34;;;;;;;39.88;9.25;;;;;;;;;;5060777;28;20408;-82
2021/08/31 03:47:00;;;;;;;8.02;6.72;;;;;;;;;;5078315;28;20399;-82
2021/08/31 03:49:26;;;;;;;7.22;6.13;;;;;;;;;;5060625;28;20066;-83
2021/08/31 03:51:52;;;;;;;10.25;6.90;;;;;;;;;;5078468;28;20073;-82
2021/08/31 03:54:18;;;;;;;7.55;6.15;;;;;;;;;;5060264;28;20041;-82
2021/08/31 03:56:44;;;;;;;7.03;6.30;;;;;;;;;;5078240;28;20028;-83
2021/08/31 03:59:10;;;;;;;8.60;6.40;;;;;;;;;;5078047;28;20020;-82
2021/08/31 04:01:36;;;;;;;10.48;6.40;;;;;;;;;;5078072;28;20318;-82
2021/08/31 04:04:02;;;;;;;6.85;6.07;;;;;;;;;;5078065;28;20017;-83
2021/08/31 04:06:28;;;;;;;8.05;6.53;;;;;;;;;;5078048;28;20025;-82
2021/08/31 04:08:54;;;;;;;8.68;5.93;;;;;;;;;;5077783;28;20058;-83
2021/08/31 04:11:20;;;;;;;8.18;6.55;;;;;;;;;;5077917;28;20027;-83
2021/08/31 04:13:46;;;;;;;9.18;6.25;;;;;;;;;;5060188;28;20016;-83
2021/08/31 04:16:12;;;;;;;8.55;6.18;;;;;;;;;;5078085;28;20020;-83
2021/08/31 04:18:38;;;;;;;7.35;6.28;;;;;;;;;;5077625;28;20062;-83
2021/08/31 04:21:04;;;;;;;7.72;6.53;;;;;;;;;;5059991;28;20131;-83
2021/08/31 04:23:30;;;;;;;9.30;6.18;;;;;;;;;;5073522;28;20449;-82
2021/08/31 04:25:57;;;;;;;9.15;6.82;;;;;;;;;;5077929;28;20040;-82
2021/08/31 04:28:23;;;;;;;7.00;6.30;;;;;;;;;;5059588;28;20078;-82
2021/08/31 04:30:49;;;;;;;7.18;6.13;;;;;;;;;;5059511;28;20036;-82
2021/08/31 04:33:15;;;;;;;9.10;7.38;;;;;;;;;;5077266;28;20104;-82
2021/08/31 04:35:41;;;;;;;11.52;7.75;;;;;;;;;;5077756;28;20040;-82
2021/08/31 04:38:07;;;;;;;11.88;8.75;;;;;;;;;;5077198;28;20104;-83
2021/08/31 04:40:33;;;;;;;10.02;8.85;;;;;;;;;;5077453;28;20017;-83
2021/08/31 04:42:59;;;;;;;13.90;9.18;;;;;;;;;;5077123;28;20070;-82
2021/08/31 04:45:25;;;;;;;11.68;8.48;;;;;;;;;;5059172;28;20123;-82
2021/08/31 04:47:51;;;;;;;11.15;8.88;;;;;;;;;;5077151;28;20029;-82
2021/08/31 04:50:17;;;;;;;9.15;7.97;;;;;;;;;;5077330;28;20021;-82
2021/08/31 04:52:45;;;;;;;10.60;8.02;;;;;;;;;;5059092;28;20094;-82
2021/08/31 04:55:11;;;;;;;9.02;7.75;;;;;;;;;;5059576;28;20427;-82
2021/08/31 04:57:38;;;;;;;8.75;7.28;;;;;;;;;;5059016;28;20423;-82
2021/08/31 05:00:04;;;;;;;10.85;6.63;;;;;;;;;;5077163;28;20056;-82
2021/08/31 05:02:32;;;;;;;11.15;6.97;;;;;;;;;;5077180;28;20271;-82
2021/08/31 05:04:59;;;;;;;7.28;6.35;;;;;;;;;;5077261;28;20029;-82
2021/08/31 05:07:25;;;;;;;10.15;6.18;;;;;;;;;;5077290;28;20093;-82
2021/08/31 05:09:51;;;;;;;6.95;6.25;;;;;;;;;;5059579;28;20040;-83
2021/08/31 05:12:17;;;;;;;9.38;6.88;;;;;;;;;;5077229;28;20024;-82
2021/08/31 05:14:43;;;;;;;12.13;7.70;;;;;;;;;;5077163;28;20086;-83
2021/08/31 05:17:09;;;;;;;8.05;6.95;;;;;;;;;;5076620;28;20024;-83
2021/08/31 05:19:35;;;;;;;8.73;7.00;;;;;;;;;;5076951;28;20017;-82
2021/08/31 05:22:01;;;;;;;11.23;7.88;;;;;;;;;;5076935;28;20016;-82
2021/08/31 05:24:29;;;;;;;16.40;7.70;;;;;;;;;;5076555;28;20053;-82
2021/08/31 05:26:55;;;;;;;8.68;7.28;;;;;;;;;;5076953;28;20345;-83
2021/08/31 05:29:21;;;;;;;7.78;6.97;;;;;;;;;;5059033;28;20407;-82
2021/08/31 05:31:47;;;;;;;9.35;7.20;;;;;;;;;;5059037;28;20478;-83
2021/08/31 05:34:13;;;;;;;7.97;7.07;;;;;;;;;;5076637;28;20398;-83
2021/08/31 05:36:39;;;;;;;9.57;7.03;;;;;;;;;;5076847;28;20315;-83
2021/08/31 05:39:06;;;;;;;7.82;6.43;;;;;;;;;;5058980;28;20057;-82
2021/08/31 05:41:32;;;;;;;8.57;6.93;;;;;;;;;;5058931;28;20020;-82
2021/08/31 05:43:58;;;;;;;9.73;6.57;;;;;;;;;;5078442;28;20028;-83
2021/08/31 05:46:24;;;;;;;7.13;6.38;;;;;;;;;;5062660;28;20533;-83
2021/08/31 05:48:50;;;;;;;7.10;6.50;;;;;;;;;;5080540;28;20074;-83
2021/08/31 05:51:18;;;;;;;9.70;7.30;;;;;;;;;;5081012;28;20044;-83
2021/08/31 05:53:44;;;;;;;9.85;6.25;;;;;;;;;;5080957;28;20032;-83
2021/08/31 05:56:10;;;;;;;12.93;9.75;;;;;;;;;;5080550;28;20025;-83
2021/08/31 05:58:36;;;;;;;8.48;7.10;;;;;;;;;;5062524;28;20431;-83
2021/08/31 06:01:02;;;;;;;9.20;7.18;;;;;;;;;;5080381;28;20429;-83
2021/08/31 06:03:28;;;;;;;10.20;7.43;;;;;;;;;;5080403;28;20031;-83
2021/08/31 06:05:54;;;;;;;8.25;7.38;;;;;;;;;;5062385;28;20060;-83
2021/08/31 06:08:20;;;;;;;10.98;8.35;;;;;;;;;;5080134;28;20033;-82
2021/08/31 06:10:47;;;;;;;10.98;7.40;;;;;;;;;;5062705;28;20039;-83
2021/08/31 06:13:13;;;;;;;8.98;7.57;;;;;;;;;;5080116;28;20028;-83
2021/08/31 06:15:39;;;;;;;8.82;7.93;;;;;;;;;;5079972;28;20036;-83
2021/08/31 06:18:05;;;;;;;9.50;7.15;;;;;;;;;;5061992;28;20032;-83
2021/08/31 06:20:31;;;;;;;8.02;7.22;;;;;;;;;;5080302;28;20060;-83
2021/08/31 06:22:57;;;;;;;11.77;7.72;;;;;;;;;;5080042;28;20439;-83
2021/08/31 06:25:23;;;;;;;10.13;7.07;;;;;;;;;;5079932;28;20484;-82
2021/08/31 06:27:49;;;;;;;8.13;7.15;;;;;;;;;;5079855;28;20025;-83
2021/08/31 06:30:15;;;;;;;9.27;7.90;;;;;;;;;;5079732;28;20040;-84
2021/08/31 06:32:41;;;;;;;8.35;7.45;;;;;;;;;;5080040;28;20040;-83
2021/08/31 06:35:08;;;;;;;8.98;7.70;;;;;;;;;;5062176;28;20025;-83
2021/08/31 06:37:34;;;;;;;8.65;7.07;;;;;;;;;;5079945;28;20021;-84
2021/08/31 06:40:00;;;;;;;9.75;8.10;;;;;;;;;;5061702;28;20067;-83
2021/08/31 06:42:26;;;;;;;9.70;7.22;;;;;;;;;;5079506;28;20070;-80
2021/08/31 06:44:52;;;;;;;11.52;7.90;;;;;;;;;;5079409;28;20099;-80
2021/08/31 06:47:18;;;;;;;9.23;7.03;;;;;;;;;;5079262;28;20021;-80
2021/08/31 06:49:44;;;;;;;20.77;14.18;;;;;;;;;;5079306;28;20028;-79
2021/08/31 06:52:10;;;;;;;36.72;26.75;;;;;;;;;;5079096;28;20465;-79
2021/08/31 06:54:36;;;;;;;21.08;15.00;;;;;;;;;;5079383;28;20033;-79
2021/08/31 06:57:02;;;;;;;23.05;15.15;;;;;;;;;;5061334;28;20022;-75
2021/08/31 06:59:29;;;;;;;15.77;11.73;;;;;;;;;;5079421;28;20341;-75
2021/08/31 07:01:55;;;;;;;48.50;31.90;;;;;;;;;;5078800;28;20058;-76
2021/08/31 07:04:21;;;;;;;23.00;15.82;;;;;;;;;;5078730;28;20345;-78
2021/08/31 07:06:47;;;;;;;13.02;10.43;;;;;;;;;;5078836;28;20028;-86
2021/08/31 07:09:13;;;;;;;21.25;14.63;;;;;;;;;;5079443;28;20292;-84
2021/08/31 07:11:39;;;;;;;18.20;13.05;;;;;;;;;;5079405;28;20027;-84
2021/08/31 07:14:05;;;;;;;10.65;7.65;;;;;;;;;;5079090;28;20021;-84
2021/08/31 07:16:31;;;;;;;8.13;6.25;;;;;;;;;;5079050;28;20027;-84
2021/08/31 07:18:57;;;;;;;10.45;8.32;;;;;;;;;;5078666;28;20029;-83
2021/08/31 07:21:23;;;;;;;7.93;6.65;;;;;;;;;;5079070;28;20074;-83
2021/08/31 07:23:49;;;;;;;46.63;33.85;;;;;;;;;;5060655;28;20044;-83
2021/08/31 07:26:16;;;;;;;11.27;8.10;;;;;;;;;;5078547;28;20025;-88
2021/08/31 07:28:42;;;;;;;28.23;20.20;;;;;;;;;;5079042;28;20024;-83
2021/08/31 07:31:08;;;;;;;12.38;9.10;;;;;;;;;;5079008;28;20036;-83
2021/08/31 07:33:34;;;;;;;11.68;8.35;;;;;;;;;;5078831;28;20028;-83
2021/08/31 07:36:00;;;;;;;6.57;5.60;;;;;;;;;;5078741;28;20020;-83
2021/08/31 07:38:26;;;;;;;23.45;16.52;;;;;;;;;;5078714;28;20094;-83
2021/08/31 07:40:52;;;;;;;9.63;6.00;;;;;;;;;;5078623;28;20052;-83
2021/08/31 07:43:19;;;;;;;13.63;10.07;;;;;;;;;;5078492;28;20025;-83
2021/08/31 07:45:45;;;;;;;9.20;6.38;;;;;;;;;;5078560;28;20043;-83
2021/08/31 07:48:11;;;;;;;10.38;6.60;;;;;;;;;;5078033;28;20032;-83
2021/08/31 07:50:37;;;;;;;8.77;7.28;;;;;;;;;;5078244;28;20056;-82
2021/08/31 07:53:03;;;;;;;10.00;8.25;;;;;;;;;;5060164;28;20476;-82
2021/08/31 07:55:30;;;;;;;21.20;14.70;;;;;;;;;;5077712;28;20033;-82
2021/08/31 07:57:56;;;;;;;12.35;10.18;;;;;;;;;;5077189;28;20055;-82
2021/08/31 08:00:23;;;;;;;8.65;7.05;;;;;;;;;;5077513;28;20024;-83
2021/08/31 08:02:49;;;;;;;12.50;9.88;;;;;;;;;;5077975;28;20026;-82
2021/08/31 08:05:15;;;;;;;21.85;15.27;;;;;;;;;;5077639;28;20422;-82
2021/08/31 08:07:41;;;;;;;9.00;7.32;;;;;;;;;;5059780;28;20043;-82
2021/08/31 08:10:07;;;;;;;4.97;4.22;;;;;;;;;;5077939;28;20145;-81
2021/08/31 08:12:33;;;;;;;7.10;6.38;;;;;;;;;;5077781;28;20115;-82
2021/08/31 08:14:59;;;;;;;8.68;7.20;;;;;;;;;;5059993;28;20403;-82
2021/08/31 08:17:26;;;;;;;3.22;2.55;;;;;;;;;;5077732;28;20032;-82
2021/08/31 08:19:52;;;;;;;2.30;2.10;;;;;;;;;;5077667;28;20027;-82
2021/08/31 08:22:18;;;;;;;2.00;1.80;;;;;;;;;;5077672;28;20029;-82
2021/08/31 08:24:45;;;;;;;2.50;1.80;;;;;;;;;;5077408;28;20174;-82
2021/08/31 08:27:11;;;;;;;14.30;2.75;;;;;;;;;;5059770;28;20029;-81
2021/08/31 08:29:38;;;;;;;2.17;1.83;;;;;;;;;;5077668;28;20112;-82
2021/08/31 08:32:11;;;;;;;1.90;1.52;;;;;;;;;;5077485;28;20031;-81
2021/08/31 08:34:38;;;;;;;1.67;1.40;;;;;;;;;;5077512;28;20027;-81
2021/08/31 08:37:05;;;;;;;4.22;1.50;;;;;;;;;;5077457;28;20464;-81
2021/08/31 08:39:31;;;;;;;2.17;1.58;;;;;;;;;;5077464;28;20425;-81
2021/08/31 08:41:58;;;;;;;1.50;1.40;;;;;;;;;;5077245;28;20028;-81
2021/08/31 08:44:27;;;;;;;2.28;2.05;;;;;;;;;;5077254;28;20048;-81
2021/08/31 08:46:53;;;;;;;1.98;1.50;;;;;;;;;;5077307;28;20013;-81
2021/08/31 08:49:19;;;;;;;2.83;1.33;;;;;;;;;;5077213;28;20029;-80
2021/08/31 08:51:46;;;;;;;10.00;7.72;;;;;;;;;;5058774;28;20032;-80
2021/08/31 08:54:12;;;;;;;2.03;1.25;;;;;;;;;;5076951;28;20024;-80
2021/08/31 08:56:38;;;;;;;1.30;1.20;;;;;;;;;;5077037;28;20033;-80
2021/08/31 08:59:04;;;;;;;4.05;2.53;;;;;;;;;;5077189;28;20032;-80
2021/08/31 09:01:41;;;;;;;2.20;1.70;;;;;;;;;;5077343;28;20058;-80
2021/08/31 09:04:07;;;;;;;2.55;2.22;;;;;;;;;;5077113;28;20354;-81
2021/08/31 09:06:33;;;;;;;4.68;3.58;;;;;;;;;;5059014;28;20029;-81
2021/08/31 09:09:00;;;;;;;2.92;2.63;;;;;;;;;;5077374;28;20041;-81
2021/08/31 09:11:33;;;;;;;2.15;1.95;;;;;;;;;;5077253;28;20024;-81
2021/08/31 09:14:15;;;;;;;2.30;2.10;;;;;;;;;;5058775;28;20033;-81
2021/08/31 09:16:41;;;;;;;2.97;2.42;;;;;;;;;;5076900;28;20020;-81
2021/08/31 09:19:07;;;;;;;3.53;2.30;;;;;;;;;;5060594;28;20024;-81
2021/08/31 09:21:33;;;;;;;6.47;1.92;;;;;;;;;;5080697;28;20012;-80
2021/08/31 09:24:00;;;;;;;2.45;2.00;;;;;;;;;;5080845;28;20055;-80
2021/08/31 09:26:35;;;;;;;4.65;2.10;;;;;;;;;;5080987;28;20027;-80
2021/08/31 09:29:11;;;;;;;3.83;2.00;;;;;;;;;;5080832;28;20066;-80
2021/08/31 09:31:45;;;;;;;2.67;1.80;;;;;;;;;;5080859;28;20031;-80
2021/08/31 09:34:31;;;;;;;5.70;1.60;;;;;;;;;;5063111;28;20033;-80
2021/08/31 09:37:17;;;;;;;2.33;1.92;;;;;;;;;;5080889;28;20065;-80
2021/08/31 09:39:43;;;;;;;2.58;2.38;;;;;;;;;;5080544;28;20399;-80
2021/08/31 09:42:09;;;;;;;3.15;2.35;;;;;;;;;;5080952;28;20351;-80
2021/08/31 09:44:35;;;;;;;8.10;6.50;;;;;;;;;;5062648;28;20036;-80
2021/08/31 09:47:03;;;;;;;5.07;3.08;;;;;;;;;;5080469;28;20040;-80
2021/08/31 09:49:30;;;;;;;7.20;2.60;;;;;;;;;;5080574;28;20017;-80
2021/08/31 09:51:58;;;;;;;4.38;3.33;;;;;;;;;;5080476;28;20457;-80
2021/08/31 09:54:24;;;;;;;4.15;2.90;;;;;;;;;;5080450;28;20024;-80
2021/08/31 09:56:51;;;;;;;4.63;2.63;;;;;;;;;;5062552;28;20427;-80
2021/08/31 09:59:17;;;;;;;2.80;2.38;;;;;;;;;;5080274;28;20021;-80
2021/08/31 10:01:43;;;;;;;4.50;3.17;;;;;;;;;;5080116;28;20024;-80
2021/08/31 10:04:09;;;;;;;2.72;2.15;;;;;;;;;;5080148;28;20020;-80
2021/08/31 10:06:36;;;;;;;6.78;3.15;;;;;;;;;;5080074;28;20033;-79
2021/08/31 10:09:02;;;;;;;4.30;1.85;;;;;;;;;;5062382;28;20031;-80
2021/08/31 10:11:28;;;;;;;7.03;2.05;;;;;;;;;;5080009;28;20402;-80
2021/08/31 10:13:55;;;;;;;2.78;2.50;;;;;;;;;;5079639;28;20052;-79
2021/08/31 10:16:22;;;;;;;3.63;2.30;;;;;;;;;;5079944;28;20051;-80
2021/08/31 10:18:48;;;;;;;17.85;2.97;;;;;;;;;;5061589;28;20410;-79
2021/08/31 10:21:14;;;;;;;3.28;2.22;;;;;;;;;;5079611;28;20024;-78
2021/08/31 10:23:44;;;;;;;3.67;2.20;;;;;;;;;;5079666;28;20068;-79
2021/08/31 10:26:23;;;;;;;3.03;2.30;;;;;;;;;;5079528;28;20446;-80
2021/08/31 10:28:52;;;;;;;6.25;5.00;;;;;;;;;;5079547;28;20151;-79
2021/08/31 10:31:31;;;;;;;4.13;3.33;;;;;;;;;;5079616;28;20066;-79
2021/08/31 10:33:58;;;;;;;15.38;8.60;;;;;;;;;;5079884;28;20024;-79
2021/08/31 10:36:37;;;;;;;4.45;2.47;;;;;;;;;;5079528;28;20116;-79
2021/08/31 10:39:07;;;;;;;6.93;5.80;;;;;;;;;;5079606;28;20020;-79
2021/08/31 10:41:35;;;;;;;5.43;3.92;;;;;;;;;;5061355;28;20357;-79
2021/08/31 10:44:02;;;;;;;4.65;2.75;;;;;;;;;;5061410;28;20032;-79
2021/08/31 10:46:49;;;;;;;3.53;1.85;;;;;;;;;;5079699;28;20013;-79
2021/08/31 10:49:15;;;;;;;2.38;2.10;;;;;;;;;;5079552;28;20037;-79
2021/08/31 10:52:07;;;;;;;3.92;2.00;;;;;;;;;;5079453;28;20032;-79
2021/08/31 10:54:44;;;;;;;3.33;2.72;;;;;;;;;;5075062;28;20091;-79
2021/08/31 10:57:43;;;;;;;2.80;2.35;;;;;;;;;;5079156;28;20107;-79
2021/08/31 11:00:15;;;;;;;4.68;2.58;;;;;;;;;;4962218;28;20062;-79
2021/08/31 11:02:50;;;;;;;2.55;2.30;;;;;;;;;;4978384;28;20042;-79
2021/08/31 11:05:18;;;;;;;2.63;2.25;;;;;;;;;;4978442;28;20027;-78
2021/08/31 11:07:45;;;;;;;3.50;2.72;;;;;;;;;;4978510;28;20027;-79
2021/08/31 11:10:11;;;;;;;4.47;2.22;;;;;;;;;;4978263;28;20066;-78
2021/08/31 11:12:37;;;;;;;4.75;2.30;;;;;;;;;;4975610;28;20057;-78
2021/08/31 11:15:05;;;;;;;3.95;2.03;;;;;;;;;;4941283;29;20492;-78
2021/08/31 11:17:38;;;;;;;3.25;2.13;;;;;;;;;;4958813;29;20422;-78
2021/08/31 11:20:24;;;;;;;2.53;2.03;;;;;;;;;;4942940;29;20151;-78
2021/08/31 11:22:54;;;;;;;3.20;2.10;;;;;;;;;;4958521;28;20035;-78
2021/08/31 11:25:27;;;;;;;2.50;2.22;;;;;;;;;;4958621;29;20330;-78
2021/08/31 11:27:54;;;;;;;4.78;2.17;;;;;;;;;;4958723;28;20421;-78
2021/08/31 11:30:21;;;;;;;2.90;2.13;;;;;;;;;;4958810;28;20044;-78
2021/08/31 11:32:47;;;;;;;2.20;2.00;;;;;;;;;;4942585;29;20038;-78
2021/08/31 11:35:14;;;;;;;3.25;1.90;;;;;;;;;;4967410;28;20038;-78
2021/08/31 11:37:52;;;;;;;3.05;2.03;;;;;;;;;;5038289;28;20064;-78
2021/08/31 11:40:26;;;;;;;4.07;2.30;;;;;;;;;;5038375;28;20024;-78
2021/08/31 11:42:53;;;;;;;2.25;2.03;;;;;;;;;;5019804;28;20033;-78
2021/08/31 11:45:19;;;;;;;3.60;2.08;;;;;;;;;;5038384;28;20048;-78
2021/08/31 11:47:45;;;;;;;2.92;1.67;;;;;;;;;;5038180;28;20034;-78
2021/08/31 11:50:13;;;;;;;2.25;1.60;;;;;;;;;;5038137;28;20321;-78
2021/08/31 11:52:39;;;;;;;2.40;1.60;;;;;;;;;;5038026;28;20052;-78
2021/08/31 11:55:05;;;;;;;3.65;1.80;;;;;;;;;;5038008;28;20025;-78
2021/08/31 11:57:32;;;;;;;1.92;1.70;;;;;;;;;;5019856;28;20324;-78
2021/08/31 11:59:58;;;;;;;5.28;2.17;;;;;;;;;;5038271;28;20017;-78
2021/08/31 12:02:28;;;;;;;4.20;2.15;;;;;;;;;;5038087;28;20025;-78
2021/08/31 12:04:57;;;;;;;3.13;1.75;;;;;;;;;;5037971;28;20041;-78
2021/08/31 12:07:26;;;;;;;2.20;2.00;;;;;;;;;;5037793;28;20415;-78
2021/08/31 12:09:54;;;;;;;3.15;2.05;;;;;;;;;;5037748;28;20037;-78
2021/08/31 12:12:20;;;;;;;11.52;4.28;;;;;;;;;;5020006;28;20160;-78
2021/08/31 12:14:47;;;;;;;5.00;2.47;;;;;;;;;;5037647;28;20343;-78
2021/08/31 12:17:27;;;;;;;2.92;2.15;;;;;;;;;;5037390;28;20029;-78
2021/08/31 12:20:02;;;;;;;4.35;2.10;;;;;;;;;;5037638;28;20022;-77
2021/08/31 12:22:33;;;;;;;1.75;1.65;;;;;;;;;;5019218;28;20037;-78
2021/08/31 12:24:59;;;;;;;2.03;1.50;;;;;;;;;;5037872;28;20050;-78
2021/08/31 12:27:25;;;;;;;4.40;1.95;;;;;;;;;;5037575;28;20033;-77
2021/08/31 12:29:56;;;;;;;1.85;1.60;;;;;;;;;;5019937;28;20064;-77
2021/08/31 12:32:26;;;;;;;1.60;1.50;;;;;;;;;;5020323;28;20065;-78
2021/08/31 12:34:53;;;;;;;4.00;1.98;;;;;;;;;;5037428;28;20315;-78
2021/08/31 12:37:28;;;;;;;2.03;1.80;;;;;;;;;;5037481;28;20029;-77
2021/08/31 12:40:11;;;;;;;4.10;2.85;;;;;;;;;;5019819;28;20033;-78
2021/08/31 12:42:39;;;;;;;3.63;2.17;;;;;;;;;;5037389;28;20022;-77
2021/08/31 12:45:05;;;;;;;3.08;2.13;;;;;;;;;;5037167;28;20312;-77
2021/08/31 12:47:31;;;;;;;3.28;2.70;;;;;;;;;;5019234;28;20390;-77
2021/08/31 12:50:06;;;;;;;6.57;4.10;;;;;;;;;;5037260;28;20026;-76
2021/08/31 12:52:34;;;;;;;7.07;3.45;;;;;;;;;;5037210;28;20033;-76
2021/08/31 12:55:14;;;;;;;4.82;3.22;;;;;;;;;;5019149;28;20446;-76
2021/08/31 12:57:40;;;;;;;7.35;4.32;;;;;;;;;;5037032;28;20029;-76
2021/08/31 13:00:17;;;;;;;3.25;1.30;;;;;;;;;;5037223;28;20029;-76
2021/08/31 13:02:43;;;;;;;5.38;1.95;;;;;;;;;;5036833;28;20059;-76
2021/08/31 13:05:11;;;;;;;3.38;1.30;;;;;;;;;;5037097;28;20025;-76
2021/08/31 13:07:37;;;;;;;3.20;2.55;;;;;;;;;;5037087;28;20025;-76
2021/08/31 13:10:03;;;;;;;4.93;2.17;;;;;;;;;;5036910;28;20029;-76
2021/08/31 13:12:29;;;;;;;2.92;1.15;;;;;;;;;;5019009;28;20128;-76
2021/08/31 13:14:56;;;;;;;1.08;0.60;;;;;;;;;;5036640;28;20032;-76
2021/08/31 13:17:24;;;;;;;3.50;2.17;;;;;;;;;;5036670;28;20021;-76
2021/08/31 13:19:50;;;;;;;11.77;6.05;;;;;;;;;;5018839;28;20034;-76
2021/08/31 13:22:17;;;;;;;3.90;3.47;;;;;;;;;;5019123;28;20061;-76
2021/08/31 13:24:43;;;;;;;2.30;2.10;;;;;;;;;;5036583;28;20120;-76
2021/08/31 13:27:11;;;;;;;7.68;4.45;;;;;;;;;;5019097;28;20430;-76
2021/08/31 13:29:37;;;;;;;3.47;1.38;;;;;;;;;;5018834;28;20420;-76
2021/08/31 13:32:03;;;;;;;1.10;0.80;;;;;;;;;;5036742;28;20025;-75
2021/08/31 13:34:29;;;;;;;1.15;0.90;;;;;;;;;;5036735;28;20080;-76
2021/08/31 13:36:55;;;;;;;1.10;0.93;;;;;;;;;;5019016;28;20053;-75
2021/08/31 13:39:24;;;;;;;2.15;1.48;;;;;;;;;;5018852;28;20045;-76
2021/08/31 13:41:50;;;;;;;2.83;1.10;;;;;;;;;;5036415;28;20022;-75
2021/08/31 13:44:16;;;;;;;1.30;0.80;;;;;;;;;;5036750;28;20040;-76
2021/08/31 13:46:42;;;;;;;8.13;5.10;;;;;;;;;;5036686;28;20018;-75
2021/08/31 13:49:08;;;;;;;4.15;2.83;;;;;;;;;;5036635;28;20037;-75
2021/08/31 13:51:35;;;;;;;1.98;1.73;;;;;;;;;;5036565;28;20022;-75
2021/08/31 13:54:01;;;;;;;3.17;2.15;;;;;;;;;;5036449;28;20407;-76
2021/08/31 13:56:27;;;;;;;2.60;1.92;;;;;;;;;;5019021;28;20041;-76
2021/08/31 13:58:53;;;;;;;11.18;1.65;;;;;;;;;;5036064;28;20319;-75
2021/08/31 14:01:19;;;;;;;3.17;1.00;;;;;;;;;;5036299;28;20335;-76
2021/08/31 14:03:46;;;;;;;1.63;1.00;;;;;;;;;;5018794;28;20400;-75
2021/08/31 14:06:12;;;;;;;2.35;1.77;;;;;;;;;;5039746;28;20026;-76
2021/08/31 14:08:38;;;;;;;2.80;1.13;;;;;;;;;;5039976;28;20018;-76
2021/08/31 14:11:04;;;;;;;1.05;0.63;;;;;;;;;;5022371;28;20022;-76
2021/08/31 14:13:31;;;;;;;0.88;0.50;;;;;;;;;;5039873;28;20053;-76
2021/08/31 14:15:57;;;;;;;10.80;1.13;;;;;;;;;;5022040;28;20068;-76
2021/08/31 14:18:25;;;;;;;0.82;0.70;;;;;;;;;;5039728;28;20057;-76
2021/08/31 14:20:51;;;;;;;1.10;0.90;;;;;;;;;;5039948;28;20148;-76
2021/08/31 14:23:18;;;;;;;0.70;0.57;;;;;;;;;;5039666;28;20045;-76
2021/08/31 14:25:45;;;;;;;2.90;1.40;;;;;;;;;;5039972;28;20033;-76
2021/08/31 14:28:11;;;;;;;2.30;1.00;;;;;;;;;;5039926;28;20057;-74
2021/08/31 14:30:37;;;;;;;4.80;2.13;;;;;;;;;;5039893;28;20033;-75
2021/08/31 14:33:03;;;;;;;5.43;2.50;;;;;;;;;;5022119;28;20128;-75
2021/08/31 14:35:29;;;;;;;2.22;1.60;;;;;;;;;;5022053;28;20041;-75
2021/08/31 14:37:55;;;;;;;1.40;1.20;;;;;;;;;;5022007;28;20021;-75